Time;durP1;ratioP1;P1;durP2;ratioP2;P2;SDS_P1;SDS_P2;PMS_P1;PMS_P2;Temp;Humidity;BMP_temperature;BMP_pressure;BME280_temperature;BME280_humidity;BME280_pressure;Samples;Min_cycle;Max_cycle;Signal;HPM_P1;HPM_P2
2023/12/20 00:01:12;;;;;;;127.33;17.27;;;-4.40;99.90;;;;;;4195113;28;20614;-61
2023/12/20 00:03:13;;;;;;;235.93;21.70;;;-4.50;99.90;;;;;;4194136;28;20282;-61
2023/12/20 00:05:14;;;;;;;140.83;16.57;;;-4.50;99.90;;;;;;4177017;28;20310;-61
2023/12/20 00:07:15;;;;;;;121.63;17.60;;;-4.50;99.90;;;;;;4194538;28;20382;-61
2023/12/20 00:09:17;;;;;;;65.97;13.83;;;-4.50;99.90;;;;;;4195214;28;20278;-61
2023/12/20 00:11:18;;;;;;;227.05;21.73;;;-4.50;99.90;;;;;;4194581;28;20335;-62
2023/12/20 00:13:19;;;;;;;64.87;13.97;;;-4.50;99.90;;;;;;4195471;28;20029;-61
2023/12/20 00:15:20;;;;;;;70.43;16.07;;;-4.40;99.90;;;;;;4178147;28;20328;-61
2023/12/20 00:17:21;;;;;;;97.80;17.70;;;-4.40;99.90;;;;;;4194612;28;20339;-61
2023/12/20 00:19:22;;;;;;;114.60;18.57;;;-4.40;99.90;;;;;;4194699;28;20369;-61
2023/12/20 00:21:24;;;;;;;119.93;19.40;;;-4.40;99.90;;;;;;4194274;28;20326;-61
2023/12/20 00:23:25;;;;;;;123.93;17.37;;;-4.40;99.90;;;;;;4194779;28;20660;-61
2023/12/20 00:25:26;;;;;;;82.80;15.30;;;-4.30;99.90;;;;;;4194367;28;20322;-61
2023/12/20 00:27:27;;;;;;;176.60;20.53;;;-4.30;99.90;;;;;;4194689;28;20269;-61
2023/12/20 00:29:28;;;;;;;115.22;17.10;;;-4.40;99.90;;;;;;4194195;28;20342;-61
2023/12/20 00:31:29;;;;;;;143.03;17.67;;;-4.40;99.90;;;;;;4194124;28;20051;-61
2023/12/20 00:33:31;;;;;;;171.90;19.80;;;-4.50;99.90;;;;;;4193657;28;20266;-61
2023/12/20 00:35:32;;;;;;;154.13;17.37;;;-4.50;99.90;;;;;;4194433;28;20257;-61
2023/12/20 00:37:33;;;;;;;109.17;16.97;;;-4.50;99.90;;;;;;4193764;28;21482;-61
2023/12/20 00:39:34;;;;;;;144.38;17.58;;;-4.50;99.90;;;;;;4193926;28;20269;-61
2023/12/20 00:41:35;;;;;;;124.27;17.13;;;-4.50;99.90;;;;;;4193686;28;20090;-62
2023/12/20 00:43:37;;;;;;;170.50;20.27;;;-4.50;99.90;;;;;;4194239;28;20273;-61
2023/12/20 00:45:38;;;;;;;114.33;19.37;;;-4.50;99.90;;;;;;4194586;28;20269;-61
2023/12/20 00:47:40;;;;;;;170.97;20.33;;;-4.50;99.90;;;;;;4193395;28;20273;-61
2023/12/20 00:49:41;;;;;;;129.70;19.23;;;-4.50;99.90;;;;;;4194443;28;20390;-61
2023/12/20 00:51:42;;;;;;;206.52;22.10;;;-4.50;99.90;;;;;;4193325;28;20257;-61
2023/12/20 00:53:44;;;;;;;115.30;15.23;;;-4.50;99.90;;;;;;4194217;28;20458;-61
2023/12/20 00:55:45;;;;;;;117.60;15.70;;;-4.50;99.90;;;;;;4192742;28;20672;-60
2023/12/20 00:57:47;;;;;;;95.78;18.35;;;-4.40;99.90;;;;;;4194242;28;20269;-61
2023/12/20 00:59:48;;;;;;;95.30;16.60;;;-4.40;99.90;;;;;;4193664;28;20024;-61
2023/12/20 01:01:49;;;;;;;107.88;18.30;;;-4.50;99.90;;;;;;4194089;28;20768;-61
2023/12/20 01:03:51;;;;;;;96.27;16.23;;;-4.40;99.90;;;;;;4193346;28;20465;-61
2023/12/20 01:05:52;;;;;;;170.63;21.00;;;-4.40;99.90;;;;;;4193774;28;20768;-61
2023/12/20 01:07:53;;;;;;;80.70;13.30;;;-4.40;99.90;;;;;;4193203;28;20261;-61
2023/12/20 01:09:54;;;;;;;219.30;24.53;;;-4.50;99.90;;;;;;4193417;28;20327;-61
2023/12/20 01:11:55;;;;;;;199.63;20.93;;;-4.40;99.90;;;;;;4193789;28;20311;-61
2023/12/20 01:13:57;;;;;;;222.43;22.53;;;-4.40;99.90;;;;;;4194159;28;20266;-62
2023/12/20 01:15:58;;;;;;;86.30;14.30;;;-4.40;99.90;;;;;;4192762;28;20312;-61
2023/12/20 01:17:59;;;;;;;198.73;20.30;;;-4.40;99.90;;;;;;4192944;28;20649;-61
2023/12/20 01:20:00;;;;;;;108.73;18.60;;;-4.40;99.90;;;;;;4193639;28;20277;-62
2023/12/20 01:22:01;;;;;;;176.80;19.43;;;-4.30;99.90;;;;;;4193371;28;20711;-61
2023/12/20 01:24:03;;;;;;;140.50;17.52;;;-4.30;99.90;;;;;;4193154;28;20342;-62
2023/12/20 01:26:05;;;;;;;38.57;12.97;;;-4.40;99.90;;;;;;4193465;28;20070;-59
2023/12/20 01:28:06;;;;;;;53.10;13.33;;;-4.40;99.90;;;;;;4192987;28;20315;-61
2023/12/20 01:30:08;;;;;;;107.53;16.83;;;-4.30;99.90;;;;;;4193181;28;20339;-61
2023/12/20 01:32:09;;;;;;;140.77;16.37;;;-4.30;99.90;;;;;;4192551;28;20672;-61
2023/12/20 01:34:10;;;;;;;102.37;15.90;;;-4.30;99.90;;;;;;4193121;28;20316;-61
2023/12/20 01:36:11;;;;;;;50.27;12.80;;;-4.30;99.90;;;;;;4193214;28;20265;-60
2023/12/20 01:38:12;;;;;;;55.30;12.60;;;-4.30;99.90;;;;;;4193120;28;20270;-61
2023/12/20 01:40:14;;;;;;;158.23;19.37;;;-4.20;99.90;;;;;;4192923;28;20266;-62
2023/12/20 01:42:15;;;;;;;64.20;17.07;;;-4.20;99.90;;;;;;4192893;28;20346;-61
2023/12/20 01:44:16;;;;;;;53.80;14.10;;;-4.20;99.90;;;;;;4192829;28;20319;-61
2023/12/20 01:46:19;;;;;;;133.90;16.93;;;-4.20;99.90;;;;;;4192540;28;20273;-61
2023/12/20 01:48:21;;;;;;;230.63;25.17;;;-4.20;99.90;;;;;;4174744;28;20278;-61
2023/12/20 01:50:23;;;;;;;155.70;17.07;;;-4.10;99.90;;;;;;4192919;28;20704;-61
2023/12/20 01:52:25;;;;;;;126.60;16.40;;;-4.20;99.90;;;;;;4192345;28;20348;-62
2023/12/20 01:54:27;;;;;;;143.07;16.47;;;-4.20;99.90;;;;;;4193227;28;20270;-60
2023/12/20 01:56:29;;;;;;;150.77;17.37;;;-4.30;99.90;;;;;;4192951;28;20307;-61
2023/12/20 01:58:31;;;;;;;79.73;13.37;;;-4.30;99.90;;;;;;4193185;28;20347;-61
2023/12/20 02:00:33;;;;;;;85.83;13.57;;;-4.20;99.90;;;;;;4192135;28;20266;-61
2023/12/20 02:02:36;;;;;;;174.07;23.07;;;-4.20;99.90;;;;;;4192645;28;20683;-59
2023/12/20 02:04:38;;;;;;;74.70;14.77;;;-4.20;99.90;;;;;;4191706;28;20719;-61
2023/12/20 02:06:40;;;;;;;225.50;23.37;;;-4.20;99.90;;;;;;4192546;28;20265;-61
2023/12/20 02:08:41;;;;;;;143.47;16.47;;;-4.20;99.90;;;;;;4190955;28;21064;-62
2023/12/20 02:10:43;;;;;;;158.33;16.13;;;-4.30;99.90;;;;;;4193232;28;20258;-61
2023/12/20 02:12:44;;;;;;;80.77;14.77;;;-4.30;99.90;;;;;;4193236;28;20273;-61
2023/12/20 02:14:45;;;;;;;116.47;14.57;;;-4.30;99.90;;;;;;4192797;28;20759;-61
2023/12/20 02:16:46;;;;;;;169.47;18.20;;;-4.30;99.90;;;;;;4192697;28;20825;-61
2023/12/20 02:18:47;;;;;;;138.13;19.07;;;-4.30;99.90;;;;;;4192601;28;20338;-61
2023/12/20 02:20:49;;;;;;;135.87;15.90;;;-4.30;99.90;;;;;;4191638;28;20326;-62
2023/12/20 02:22:50;;;;;;;138.80;16.60;;;-4.30;99.90;;;;;;4192585;28;20319;-62
2023/12/20 02:24:51;;;;;;;301.10;25.53;;;-4.30;99.90;;;;;;4193087;28;20810;-61
2023/12/20 02:26:52;;;;;;;116.13;16.33;;;-4.30;99.90;;;;;;4192194;28;20285;-61
2023/12/20 02:28:54;;;;;;;236.60;19.90;;;-4.40;99.90;;;;;;4192966;28;20311;-61
2023/12/20 02:30:55;;;;;;;193.13;19.63;;;-4.30;99.90;;;;;;4191341;28;20699;-62
2023/12/20 02:32:57;;;;;;;106.23;14.63;;;-4.40;99.90;;;;;;4192642;28;20273;-61
2023/12/20 02:34:58;;;;;;;210.83;19.80;;;-4.40;99.90;;;;;;4191799;28;20307;-62
2023/12/20 02:36:59;;;;;;;109.93;16.63;;;-4.40;99.90;;;;;;4191930;28;20319;-61
2023/12/20 02:39:00;;;;;;;183.85;17.63;;;-4.50;99.90;;;;;;4191855;28;20269;-61
2023/12/20 02:41:02;;;;;;;150.10;15.25;;;-4.40;99.90;;;;;;4192064;28;20094;-61
2023/12/20 02:43:03;;;;;;;97.25;13.82;;;-4.50;99.90;;;;;;4192693;28;20404;-61
2023/12/20 02:45:05;;;;;;;113.63;13.37;;;-4.60;99.90;;;;;;4192765;28;20028;-61
2023/12/20 02:47:06;;;;;;;131.73;16.98;;;-4.60;99.90;;;;;;4192379;28;20700;-62
2023/12/20 02:49:07;;;;;;;150.90;21.00;;;-4.70;99.90;;;;;;4192584;28;20110;-61
2023/12/20 02:51:09;;;;;;;175.23;17.60;;;-4.70;99.90;;;;;;4191781;28;20323;-61
2023/12/20 02:53:10;;;;;;;108.50;14.33;;;-4.70;99.90;;;;;;4191666;28;20063;-61
2023/12/20 02:55:11;;;;;;;91.17;16.13;;;-4.70;99.90;;;;;;4192331;28;20661;-61
2023/12/20 02:57:12;;;;;;;106.95;18.08;;;-4.70;99.90;;;;;;4192264;28;20323;-61
2023/12/20 02:59:13;;;;;;;64.10;13.00;;;-4.70;99.90;;;;;;4192147;28;20045;-62
2023/12/20 03:01:15;;;;;;;92.00;15.57;;;-4.70;99.90;;;;;;4191817;28;20952;-61
2023/12/20 03:03:16;;;;;;;114.50;13.85;;;-4.70;99.90;;;;;;4192548;28;20343;-63
2023/12/20 03:05:17;;;;;;;57.42;12.73;;;-4.70;99.90;;;;;;4191677;28;20037;-61
2023/12/20 03:07:18;;;;;;;94.10;15.47;;;-4.70;99.90;;;;;;4191762;28;20086;-62
2023/12/20 03:09:19;;;;;;;65.60;12.43;;;-4.80;99.90;;;;;;4191999;28;20311;-61
2023/12/20 03:11:20;;;;;;;65.37;12.43;;;-4.80;99.90;;;;;;4191877;28;20041;-61
2023/12/20 03:13:21;;;;;;;102.37;15.50;;;-4.80;99.90;;;;;;4192371;28;20295;-62
2023/12/20 03:15:23;;;;;;;88.57;13.65;;;-4.80;99.90;;;;;;4191943;28;20705;-61
2023/12/20 03:17:24;;;;;;;255.48;23.65;;;-4.80;99.90;;;;;;4192444;28;20074;-61
2023/12/20 03:19:25;;;;;;;112.22;14.85;;;-4.90;99.90;;;;;;4194664;28;20032;-61
2023/12/20 03:21:26;;;;;;;198.70;17.48;;;-4.90;99.90;;;;;;4194305;28;20468;-61
2023/12/20 03:23:27;;;;;;;73.25;14.80;;;-4.90;99.90;;;;;;4194919;28;20101;-61
2023/12/20 03:25:28;;;;;;;52.10;11.52;;;-5.00;99.90;;;;;;4194981;28;20037;-63
2023/12/20 03:27:30;;;;;;;67.83;11.00;;;-5.00;99.90;;;;;;4159675;28;20041;-62
2023/12/20 03:29:31;;;;;;;55.25;11.82;;;-5.00;99.90;;;;;;4195639;28;20249;-61
2023/12/20 03:31:32;;;;;;;134.90;16.80;;;-5.10;99.90;;;;;;4194074;28;20104;-61
2023/12/20 03:33:33;;;;;;;27.58;9.75;;;-5.00;99.90;;;;;;4194759;28;20040;-61
2023/12/20 03:35:34;;;;;;;67.15;12.10;;;-5.00;99.90;;;;;;4194637;28;20040;-61
2023/12/20 03:37:36;;;;;;;41.83;12.68;;;-4.90;99.90;;;;;;4194945;28;20425;-60
2023/12/20 03:39:37;;;;;;;35.08;10.85;;;-4.90;99.90;;;;;;4195308;28;20380;-61
2023/12/20 03:41:38;;;;;;;73.03;12.83;;;-4.90;99.90;;;;;;4194292;28;20186;-61
2023/12/20 03:43:39;;;;;;;143.80;16.67;;;-4.90;99.90;;;;;;4195081;28;20285;-60
2023/12/20 03:45:41;;;;;;;125.68;16.05;;;-5.00;99.90;;;;;;4194871;28;20853;-60
2023/12/20 03:47:43;;;;;;;153.68;18.75;;;-5.00;99.90;;;;;;4194246;28;20113;-60
2023/12/20 03:49:44;;;;;;;219.40;19.45;;;-5.00;99.90;;;;;;4194948;28;20044;-61
2023/12/20 03:51:45;;;;;;;42.80;10.30;;;-5.00;99.90;;;;;;4194803;28;20028;-61
2023/12/20 03:53:46;;;;;;;98.85;13.38;;;-5.00;99.90;;;;;;4194545;28;20708;-61
2023/12/20 03:55:47;;;;;;;70.53;11.82;;;-5.00;99.90;;;;;;4194610;28;20033;-60
2023/12/20 03:57:49;;;;;;;61.67;11.07;;;-5.00;99.90;;;;;;4194850;28;20040;-61
2023/12/20 03:59:50;;;;;;;91.30;13.00;;;-5.00;99.90;;;;;;4193843;28;20032;-61
2023/12/20 04:01:51;;;;;;;90.85;12.60;;;-5.00;99.90;;;;;;4193747;28;20053;-61
2023/12/20 04:03:52;;;;;;;71.50;12.88;;;-5.10;99.90;;;;;;4193878;28;20036;-60
2023/12/20 04:05:53;;;;;;;71.60;12.32;;;-5.10;99.90;;;;;;4194392;28;20062;-60
2023/12/20 04:07:54;;;;;;;94.43;14.60;;;-5.10;99.90;;;;;;4194992;28;20124;-60
2023/12/20 04:09:56;;;;;;;133.98;17.08;;;-5.20;99.90;;;;;;4194902;28;20423;-61
2023/12/20 04:11:57;;;;;;;77.13;13.20;;;-5.20;99.90;;;;;;4194357;28;20028;-61
2023/12/20 04:13:58;;;;;;;70.70;12.50;;;-5.20;99.90;;;;;;4194452;28;20467;-61
2023/12/20 04:15:59;;;;;;;107.00;12.52;;;-5.20;99.90;;;;;;4194312;28;20024;-61
2023/12/20 04:18:00;;;;;;;73.45;11.82;;;-5.30;99.90;;;;;;4194282;28;20090;-62
2023/12/20 04:20:02;;;;;;;75.05;12.95;;;-5.30;99.90;;;;;;4194783;28;20085;-61
2023/12/20 04:22:03;;;;;;;126.90;17.60;;;-5.40;99.90;;;;;;4193832;28;20048;-61
2023/12/20 04:24:05;;;;;;;80.28;10.18;;;-5.40;99.90;;;;;;4194558;28;20481;-61
2023/12/20 04:26:06;;;;;;;95.18;13.35;;;-5.40;99.90;;;;;;4194248;28;20028;-59
2023/12/20 04:28:07;;;;;;;113.22;16.90;;;-5.40;99.90;;;;;;4194376;28;20074;-61
2023/12/20 04:30:09;;;;;;;179.77;17.65;;;-5.30;99.90;;;;;;4193908;28;20086;-61
2023/12/20 04:32:10;;;;;;;56.47;11.57;;;-5.30;99.90;;;;;;4194171;28;20396;-62
2023/12/20 04:34:11;;;;;;;99.43;13.07;;;-5.30;99.90;;;;;;4194116;28;20451;-61
2023/12/20 04:36:12;;;;;;;105.47;13.57;;;-5.30;99.90;;;;;;4193133;28;20041;-58
2023/12/20 04:38:14;;;;;;;86.63;14.30;;;-5.20;99.90;;;;;;4194738;28;20025;-61
2023/12/20 04:40:15;;;;;;;58.20;12.85;;;-5.20;99.90;;;;;;4194363;28;20089;-61
2023/12/20 04:42:16;;;;;;;60.38;15.90;;;-5.20;99.90;;;;;;4193675;28;20044;-61
2023/12/20 04:44:17;;;;;;;72.53;12.20;;;-5.10;99.90;;;;;;4194884;28;20085;-61
2023/12/20 04:46:18;;;;;;;115.82;15.23;;;-5.10;99.90;;;;;;4194489;28;20025;-60
2023/12/20 04:48:19;;;;;;;134.32;14.82;;;-5.10;99.90;;;;;;4194479;28;20419;-61
2023/12/20 04:50:21;;;;;;;84.45;12.48;;;-5.10;99.90;;;;;;4192995;28;20036;-60
2023/12/20 04:52:22;;;;;;;51.88;11.52;;;-5.20;99.90;;;;;;4193352;28;20478;-60
2023/12/20 04:54:23;;;;;;;59.58;11.35;;;-5.20;99.90;;;;;;4175481;28;20036;-60
2023/12/20 04:56:25;;;;;;;85.50;11.73;;;-5.20;99.90;;;;;;4193945;28;20102;-61
2023/12/20 04:58:26;;;;;;;79.82;13.32;;;-5.20;99.90;;;;;;4193449;28;20489;-61
2023/12/20 05:00:27;;;;;;;84.43;13.35;;;-5.20;99.90;;;;;;4193861;28;20461;-61
2023/12/20 05:02:28;;;;;;;89.78;12.15;;;-5.30;99.90;;;;;;4193137;28;20056;-63
2023/12/20 05:04:30;;;;;;;50.40;11.18;;;-5.30;99.90;;;;;;4194272;28;20098;-61
2023/12/20 05:06:31;;;;;;;42.45;10.98;;;-5.40;99.90;;;;;;4193933;28;20032;-61
2023/12/20 05:08:32;;;;;;;51.92;11.43;;;-5.30;99.90;;;;;;4194352;28;20021;-62
2023/12/20 05:10:34;;;;;;;68.63;12.75;;;-5.30;99.90;;;;;;4193754;28;20354;-62
2023/12/20 05:12:35;;;;;;;51.27;11.17;;;-5.30;99.90;;;;;;4193939;28;20032;-59
2023/12/20 05:14:36;;;;;;;64.03;12.48;;;-5.30;99.90;;;;;;4193807;28;20261;-61
2023/12/20 05:16:37;;;;;;;86.80;13.50;;;-5.30;99.90;;;;;;4193644;28;20075;-60
2023/12/20 05:18:38;;;;;;;100.53;14.57;;;-5.30;99.90;;;;;;4180810;28;20047;-60
2023/12/20 05:20:40;;;;;;;128.75;17.25;;;-5.30;99.90;;;;;;4181873;28;20017;-59
2023/12/20 05:22:41;;;;;;;48.55;9.88;;;-5.30;99.90;;;;;;4192424;28;20049;-62
2023/12/20 05:24:42;;;;;;;35.47;10.57;;;-5.30;99.90;;;;;;4192413;28;20048;-63
2023/12/20 05:26:44;;;;;;;52.13;10.85;;;-5.30;99.90;;;;;;4193512;28;20040;-60
2023/12/20 05:28:45;;;;;;;48.00;11.25;;;-5.30;99.90;;;;;;4193276;28;20467;-60
2023/12/20 05:30:46;;;;;;;33.50;11.00;;;-5.30;99.90;;;;;;4193063;28;20408;-61
2023/12/20 05:32:47;;;;;;;46.78;12.77;;;-5.30;99.90;;;;;;4192344;28;20032;-60
2023/12/20 05:34:48;;;;;;;35.47;11.60;;;-5.30;99.90;;;;;;4193001;28;20772;-60
2023/12/20 05:36:49;;;;;;;34.13;10.50;;;-5.40;99.90;;;;;;4192231;28;20041;-61
2023/12/20 05:38:50;;;;;;;70.25;12.73;;;-5.40;99.90;;;;;;4191855;28;20044;-60
2023/12/20 05:40:52;;;;;;;39.50;12.68;;;-5.40;99.90;;;;;;4192424;28;20093;-60
2023/12/20 05:42:53;;;;;;;47.65;9.70;;;-5.40;99.90;;;;;;4190902;28;20143;-60
2023/12/20 05:44:54;;;;;;;148.68;16.90;;;-5.40;99.90;;;;;;4187317;28;20157;-61
2023/12/20 05:46:55;;;;;;;61.17;11.65;;;-5.50;99.90;;;;;;4192209;28;20098;-60
2023/12/20 05:48:56;;;;;;;33.63;10.48;;;-5.50;99.90;;;;;;4192718;28;20024;-60
2023/12/20 05:50:58;;;;;;;40.50;13.93;;;-5.40;99.90;;;;;;4192894;28;20117;-60
2023/12/20 05:52:59;;;;;;;54.40;10.88;;;-5.40;99.90;;;;;;4191414;28;21183;-61
2023/12/20 05:55:03;;;;;;;36.13;12.77;;;-5.40;99.90;;;;;;4191594;28;20044;-60
2023/12/20 05:57:04;;;;;;;34.63;10.13;;;-5.40;99.90;;;;;;4190879;28;20086;-61
2023/12/20 05:59:05;;;;;;;135.60;14.38;;;-5.40;99.90;;;;;;4174438;28;20021;-61
2023/12/20 06:01:08;;;;;;;78.72;13.18;;;-5.50;99.90;;;;;;4191094;28;20036;-60
2023/12/20 06:03:09;;;;;;;92.00;11.77;;;-5.60;99.90;;;;;;4191298;28;20056;-61
2023/12/20 06:05:10;;;;;;;54.90;10.52;;;-5.60;99.90;;;;;;4192533;28;20036;-61
2023/12/20 06:07:12;;;;;;;54.47;10.13;;;-5.50;99.90;;;;;;4192449;28;20044;-61
2023/12/20 06:09:15;;;;;;;67.35;12.63;;;-5.50;99.90;;;;;;4192790;28;20067;-61
2023/12/20 06:11:16;;;;;;;71.82;11.23;;;-5.50;99.90;;;;;;4192309;28;20048;-61
2023/12/20 06:13:17;;;;;;;33.30;9.95;;;-5.50;99.90;;;;;;4174634;28;20032;-61
2023/12/20 06:15:18;;;;;;;53.00;11.10;;;-5.50;99.90;;;;;;4192138;28;20392;-61
2023/12/20 06:17:19;;;;;;;31.50;10.32;;;-5.50;99.90;;;;;;4192742;28;20036;-62
2023/12/20 06:19:21;;;;;;;24.70;9.65;;;-5.50;99.90;;;;;;4192515;28;20021;-62
2023/12/20 06:21:22;;;;;;;33.88;10.25;;;-5.50;99.90;;;;;;4192553;28;20028;-61
2023/12/20 06:23:23;;;;;;;37.92;10.90;;;-5.40;99.90;;;;;;4192487;28;20028;-61
2023/12/20 06:25:25;;;;;;;31.92;10.38;;;-5.40;99.90;;;;;;4192105;28;20078;-61
2023/12/20 06:27:26;;;;;;;66.57;11.50;;;-5.50;99.90;;;;;;4192152;28;20041;-61
2023/12/20 06:29:28;;;;;;;30.85;8.93;;;-5.50;99.90;;;;;;4174636;28;20032;-61
2023/12/20 06:31:29;;;;;;;29.33;10.10;;;-5.50;99.90;;;;;;4192729;28;20025;-61
2023/12/20 06:33:31;;;;;;;40.58;10.88;;;-5.40;99.90;;;;;;4191901;28;20447;-61
2023/12/20 06:35:32;;;;;;;24.05;10.20;;;-5.40;99.90;;;;;;4192269;28;20033;-62
2023/12/20 06:37:33;;;;;;;26.10;10.63;;;-5.40;99.90;;;;;;4192256;28;20025;-62
2023/12/20 06:39:35;;;;;;;30.38;11.35;;;-5.40;99.90;;;;;;4192283;28;20098;-62
2023/12/20 06:41:36;;;;;;;26.65;11.75;;;-5.40;99.90;;;;;;4192273;28;20090;-61
2023/12/20 06:43:37;;;;;;;30.45;12.32;;;-5.30;99.90;;;;;;4192032;28;20703;-62
2023/12/20 06:45:38;;;;;;;35.20;11.65;;;-5.30;99.90;;;;;;4192218;28;20036;-62
2023/12/20 06:47:39;;;;;;;48.30;13.80;;;-5.30;99.90;;;;;;4192569;28;20062;-62
2023/12/20 06:49:40;;;;;;;69.63;13.43;;;-5.30;99.90;;;;;;4192430;28;20054;-62
2023/12/20 06:51:42;;;;;;;45.67;13.20;;;-5.40;99.90;;;;;;4192516;28;20021;-62
2023/12/20 06:53:43;;;;;;;95.75;17.17;;;-5.40;99.90;;;;;;4195452;28;20094;-61
2023/12/20 06:55:44;;;;;;;35.03;13.02;;;-5.40;99.90;;;;;;4197144;28;20032;-61
2023/12/20 06:57:45;;;;;;;23.73;10.00;;;-5.40;99.90;;;;;;4197966;28;20644;-61
2023/12/20 06:59:46;;;;;;;26.00;10.63;;;-5.40;99.90;;;;;;4196989;28;20086;-61
2023/12/20 07:01:48;;;;;;;27.40;10.27;;;-5.40;99.90;;;;;;4180040;28;20037;-61
2023/12/20 07:03:50;;;;;;;33.10;13.27;;;-5.40;99.90;;;;;;4197440;28;20447;-61
2023/12/20 07:05:51;;;;;;;25.00;11.00;;;-5.40;99.90;;;;;;4179886;28;20544;-61
2023/12/20 07:07:52;;;;;;;28.30;10.80;;;-5.40;99.90;;;;;;4197320;28;20037;-61
2023/12/20 07:09:53;;;;;;;25.65;11.50;;;-5.40;99.90;;;;;;4198025;28;20032;-61
2023/12/20 07:11:55;;;;;;;41.58;10.80;;;-5.40;99.90;;;;;;4197743;28;20410;-61
2023/12/20 07:13:56;;;;;;;26.00;10.35;;;-5.40;99.90;;;;;;4197915;28;20041;-61
2023/12/20 07:15:57;;;;;;;35.25;11.95;;;-5.40;99.90;;;;;;4198289;28;20086;-62
2023/12/20 07:18:00;;;;;;;42.50;11.40;;;-5.40;99.90;;;;;;4197790;28;20489;-62
2023/12/20 07:20:03;;;;;;;53.65;15.05;;;-5.40;99.90;;;;;;4197746;28;20021;-62
2023/12/20 07:22:05;;;;;;;30.02;11.02;;;-5.40;99.90;;;;;;4196661;28;20485;-60
2023/12/20 07:24:07;;;;;;;35.67;11.60;;;-5.40;99.90;;;;;;4197546;28;20032;-62
2023/12/20 07:26:08;;;;;;;49.00;11.52;;;-5.40;99.90;;;;;;4197575;28;20161;-61
2023/12/20 07:28:10;;;;;;;36.22;11.63;;;-5.40;99.90;;;;;;4196644;28;20108;-62
2023/12/20 07:30:12;;;;;;;40.53;12.48;;;-5.30;99.90;;;;;;4197038;28;20048;-61
2023/12/20 07:32:13;;;;;;;52.13;13.88;;;-5.30;99.90;;;;;;4197513;28;20092;-63
2023/12/20 07:34:14;;;;;;;39.75;12.25;;;-5.20;99.90;;;;;;4196780;28;20074;-62
2023/12/20 07:36:15;;;;;;;72.82;11.20;;;-5.20;99.90;;;;;;4197525;28;20387;-62
2023/12/20 07:38:16;;;;;;;58.78;11.15;;;-5.20;99.90;;;;;;4196620;28;20103;-61
2023/12/20 07:40:17;;;;;;;87.68;12.45;;;-5.30;99.90;;;;;;4197637;28;20020;-62
2023/12/20 07:42:19;;;;;;;74.03;11.93;;;-5.40;99.90;;;;;;4197045;28;20036;-61
2023/12/20 07:44:20;;;;;;;84.10;12.48;;;-5.40;99.90;;;;;;4196764;28;20101;-63
2023/12/20 07:46:24;;;;;;;41.03;10.90;;;-5.30;99.90;;;;;;4197641;28;20067;-61
2023/12/20 07:48:25;;;;;;;55.03;12.32;;;-5.30;99.90;;;;;;4196812;28;20032;-63
2023/12/20 07:50:27;;;;;;;38.72;12.57;;;-5.30;99.90;;;;;;4196705;28;20098;-62
2023/12/20 07:52:29;;;;;;;36.35;13.45;;;-5.30;99.90;;;;;;4196942;28;20105;-62
2023/12/20 07:54:30;;;;;;;30.42;11.80;;;-5.10;99.90;;;;;;4197479;28;20025;-61
2023/12/20 07:56:31;;;;;;;32.30;12.63;;;-5.10;99.90;;;;;;4197407;28;20040;-62
2023/12/20 07:58:33;;;;;;;31.10;13.35;;;-5.10;99.90;;;;;;4197464;28;20033;-61
2023/12/20 08:00:34;;;;;;;33.20;12.32;;;-5.00;99.90;;;;;;4196402;28;20113;-62
2023/12/20 08:02:35;;;;;;;35.08;13.88;;;-5.00;99.90;;;;;;4196506;28;20048;-62
2023/12/20 08:04:37;;;;;;;31.08;12.57;;;-5.00;99.90;;;;;;4195658;28;20025;-61
2023/12/20 08:06:38;;;;;;;37.42;13.73;;;-5.00;99.90;;;;;;4194962;28;20066;-62
2023/12/20 08:08:39;;;;;;;32.50;13.80;;;-4.90;99.90;;;;;;4193833;28;20074;-62
2023/12/20 08:10:41;;;;;;;33.50;11.35;;;-4.90;99.90;;;;;;4194166;28;20067;-63
2023/12/20 08:12:42;;;;;;;31.75;12.95;;;-4.80;99.90;;;;;;4194124;28;20056;-62
2023/12/20 08:14:43;;;;;;;29.80;12.82;;;-4.80;99.90;;;;;;4194775;28;20097;-62
2023/12/20 08:16:44;;;;;;;33.17;14.32;;;-4.70;99.90;;;;;;4194678;28;20082;-61
2023/12/20 08:18:45;;;;;;;40.05;13.07;;;-4.70;99.90;;;;;;4193764;28;20045;-62
2023/12/20 08:20:48;;;;;;;38.35;13.88;;;-4.80;99.90;;;;;;4193692;28;20036;-62
2023/12/20 08:22:49;;;;;;;38.88;15.02;;;-4.80;99.90;;;;;;4194604;28;20044;-62
2023/12/20 08:24:50;;;;;;;38.70;15.98;;;-4.70;99.90;;;;;;4193452;28;20384;-62
2023/12/20 08:26:52;;;;;;;36.38;14.80;;;-4.70;99.90;;;;;;4193590;28;20094;-61
2023/12/20 08:28:53;;;;;;;36.97;15.45;;;-4.70;99.90;;;;;;4194465;28;20040;-62
2023/12/20 08:30:55;;;;;;;40.92;16.10;;;-4.80;99.90;;;;;;4194131;28;20029;-61
2023/12/20 08:32:56;;;;;;;35.78;15.02;;;-4.70;99.90;;;;;;4193866;28;20040;-63
2023/12/20 08:34:58;;;;;;;35.00;14.97;;;-4.70;99.90;;;;;;4193648;28;20082;-62
2023/12/20 08:36:59;;;;;;;32.73;14.53;;;-4.70;99.90;;;;;;4176168;28;20282;-62
2023/12/20 08:39:00;;;;;;;34.50;14.57;;;-4.60;99.90;;;;;;4193202;28;20818;-62
2023/12/20 08:41:04;;;;;;;38.70;15.30;;;-4.70;99.90;;;;;;4194440;28;20730;-63
2023/12/20 08:43:06;;;;;;;32.83;14.18;;;-4.60;99.90;;;;;;4193304;28;21078;-62
2023/12/20 08:45:07;;;;;;;35.28;14.25;;;-4.60;99.90;;;;;;4194921;28;20394;-63
2023/12/20 08:47:12;;;;;;;35.63;14.67;;;-4.60;99.90;;;;;;4193835;28;20025;-61
2023/12/20 08:49:14;;;;;;;33.80;13.37;;;-4.50;99.90;;;;;;4193447;28;20409;-61
2023/12/20 08:51:15;;;;;;;30.43;14.33;;;-4.40;99.90;;;;;;4176404;28;20262;-61
2023/12/20 08:53:17;;;;;;;31.97;11.73;;;-4.40;99.90;;;;;;4194256;28;20261;-63
2023/12/20 08:55:19;;;;;;;44.30;13.77;;;-4.50;99.90;;;;;;4193983;28;20339;-61
2023/12/20 08:57:21;;;;;;;36.67;14.37;;;-4.40;99.90;;;;;;4193017;28;20269;-61
2023/12/20 08:59:22;;;;;;;38.10;14.67;;;-4.40;99.90;;;;;;4194215;28;20324;-62
2023/12/20 09:01:23;;;;;;;35.13;14.77;;;-4.40;99.90;;;;;;4193665;28;20269;-62
2023/12/20 09:03:24;;;;;;;31.00;13.63;;;-4.40;99.90;;;;;;4193602;28;20141;-62
2023/12/20 09:05:26;;;;;;;28.47;12.33;;;-4.30;99.90;;;;;;4193627;28;20265;-62
2023/12/20 09:07:29;;;;;;;27.80;12.87;;;-4.30;99.90;;;;;;4192814;28;20815;-63
2023/12/20 09:09:32;;;;;;;28.67;11.88;;;-4.30;99.90;;;;;;4193468;28;20302;-62
2023/12/20 09:11:34;;;;;;;33.60;13.87;;;-4.30;99.90;;;;;;4193832;28;20420;-62
2023/12/20 09:13:35;;;;;;;33.33;12.67;;;-4.30;99.90;;;;;;4192582;28;20281;-62
2023/12/20 09:15:37;;;;;;;30.07;13.23;;;-4.20;99.90;;;;;;4194061;28;20266;-62
2023/12/20 09:17:38;;;;;;;28.83;12.70;;;-4.20;99.90;;;;;;4192868;28;20319;-62
2023/12/20 09:19:40;;;;;;;36.57;14.23;;;-4.20;99.90;;;;;;4193008;28;20315;-62
2023/12/20 09:21:41;;;;;;;27.00;12.00;;;-4.10;99.90;;;;;;4174913;28;20258;-63
2023/12/20 09:23:42;;;;;;;29.60;11.60;;;-4.10;99.90;;;;;;4193484;28;20293;-61
2023/12/20 09:25:44;;;;;;;34.43;13.83;;;-3.90;99.90;;;;;;4193445;28;20307;-61
2023/12/20 09:27:45;;;;;;;25.47;11.80;;;-4.00;99.90;;;;;;4193544;28;20277;-61
2023/12/20 09:29:48;;;;;;;26.27;12.87;;;-3.90;99.90;;;;;;4193245;28;20323;-61
2023/12/20 09:31:49;;;;;;;28.27;13.53;;;-3.90;99.90;;;;;;4192658;28;20294;-61
2023/12/20 09:33:51;;;;;;;25.60;11.80;;;-3.90;99.90;;;;;;4175347;28;20266;-61
2023/12/20 09:35:52;;;;;;;26.73;11.60;;;-3.80;99.90;;;;;;4193054;28;20709;-61
2023/12/20 09:37:53;;;;;;;27.83;12.13;;;-3.80;99.90;;;;;;4192660;28;20323;-63
2023/12/20 09:39:55;;;;;;;28.00;12.20;;;-3.80;99.90;;;;;;4192112;28;20741;-63
2023/12/20 09:42:04;;;;;;;29.93;12.33;;;-3.80;99.90;;;;;;4193158;28;20281;-61
2023/12/20 09:44:07;;;;;;;24.10;11.23;;;-3.80;99.90;;;;;;4192900;28;20700;-61
2023/12/20 09:46:11;;;;;;;25.23;11.77;;;-3.90;99.90;;;;;;4193715;28;20398;-61
2023/12/20 09:48:16;;;;;;;26.90;11.90;;;-3.90;99.90;;;;;;4192292;28;20562;-62
2023/12/20 09:50:20;;;;;;;27.57;12.67;;;-3.90;99.90;;;;;;4192493;28;20277;-62
2023/12/20 09:52:23;;;;;;;29.20;13.43;;;-3.80;99.90;;;;;;4192545;28;20331;-62
2023/12/20 09:54:26;;;;;;;32.10;13.57;;;-3.80;99.90;;;;;;4192830;28;20367;-61
2023/12/20 09:56:27;;;;;;;28.50;12.80;;;-3.80;99.90;;;;;;4192645;28;20258;-62
2023/12/20 09:58:28;;;;;;;27.90;12.00;;;-3.80;99.90;;;;;;4192305;28;20278;-62
2023/12/20 10:00:30;;;;;;;25.87;11.90;;;-3.70;99.90;;;;;;4192766;28;20311;-62
2023/12/20 10:02:32;;;;;;;24.37;11.90;;;-3.60;99.90;;;;;;4192588;28;20269;-62
2023/12/20 10:04:35;;;;;;;27.60;12.43;;;-3.50;99.90;;;;;;4192281;28;20319;-62
2023/12/20 10:06:36;;;;;;;25.53;12.60;;;-3.50;99.90;;;;;;4192099;28;20261;-62
2023/12/20 10:08:38;;;;;;;30.13;12.63;;;-3.50;99.90;;;;;;4191748;28;20281;-62
2023/12/20 10:10:39;;;;;;;26.30;12.13;;;-3.50;99.90;;;;;;4192553;28;20304;-62
2023/12/20 10:12:40;;;;;;;28.47;13.27;;;-3.50;99.90;;;;;;4192680;28;20279;-62